createdAt,value
2023-05-08T18:01:04.881Z,14.00
2023-05-08T18:03:15.231Z,14.00
2023-05-08T18:05:23.803Z,13.40
2023-05-08T18:07:33.248Z,13.10
2023-05-08T18:09:42.393Z,12.90
2023-05-08T18:11:50.754Z,12.70
2023-05-08T18:13:59.432Z,12.60
2023-05-08T18:16:08.251Z,12.50
2023-05-08T18:18:18.539Z,12.50
2023-05-08T18:20:26.822Z,12.30
2023-05-08T18:22:35.782Z,12.20
2023-05-08T18:24:45.606Z,11.90
2023-05-08T18:26:54.018Z,11.70
2023-05-08T18:29:02.655Z,11.60
2023-05-08T18:31:11.133Z,11.60
2023-05-08T18:33:21.031Z,11.60
2023-05-08T18:35:29.477Z,11.40
2023-05-08T18:37:38.158Z,11.40
2023-05-08T18:39:46.883Z,11.20
2023-05-08T18:41:55.218Z,11.00
2023-05-08T18:44:05.222Z,10.90
2023-05-08T18:46:14.640Z,10.70
2023-05-08T18:48:24.502Z,10.60
2023-05-08T18:50:33.649Z,10.60
2023-05-08T18:52:42.330Z,10.50
2023-05-08T18:54:51.300Z,10.40
2023-05-08T18:57:00.066Z,10.40
2023-05-08T18:59:08.980Z,10.20
2023-05-08T19:01:20.325Z,10.10
2023-05-08T19:03:30.628Z,10.00
2023-05-08T19:05:39.530Z,10.00
2023-05-08T19:07:48.357Z,10.00
2023-05-08T19:09:58.068Z,9.90
2023-05-08T19:12:06.531Z,9.80
2023-05-08T19:14:14.832Z,9.80
2023-05-08T19:16:23.398Z,9.80
2023-05-08T19:18:34.127Z,9.70
2023-05-08T19:20:42.644Z,9.60
2023-05-08T19:22:51.574Z,9.40
2023-05-08T19:25:00.442Z,9.40
2023-05-08T19:27:08.794Z,9.30
2023-05-08T19:29:17.332Z,9.20
2023-05-08T19:31:26.114Z,9.20
2023-05-08T19:33:36.369Z,9.20
2023-05-08T19:35:44.896Z,9.10
2023-05-08T19:37:53.486Z,9.00
2023-05-08T19:40:01.722Z,8.90
2023-05-08T19:42:11.621Z,8.90
2023-05-08T19:44:20.407Z,8.90
2023-05-08T19:46:29.078Z,8.80
2023-05-08T19:48:40.241Z,8.70
2023-05-08T19:50:48.823Z,8.70
2023-05-08T19:52:57.349Z,8.60
2023-05-08T19:55:06.481Z,8.60
2023-05-08T19:57:15.267Z,8.50
2023-05-08T19:59:23.725Z,8.40
2023-05-08T20:01:32.350Z,8.40
2023-05-08T20:03:43.088Z,8.30
2023-05-08T20:05:52.399Z,8.30
2023-05-08T20:08:01.130Z,8.30
2023-05-08T20:10:11.062Z,8.30
2023-05-08T20:12:20.018Z,8.20
2023-05-08T20:14:28.521Z,8.10
2023-05-08T20:16:37.238Z,8.00
2023-05-08T20:18:47.213Z,8.00
2023-05-08T20:20:55.572Z,8.00
2023-05-08T20:23:04.557Z,7.90
2023-05-08T20:25:13.476Z,7.80
2023-05-08T20:27:22.049Z,7.80
2023-05-08T20:29:30.676Z,7.70
2023-05-08T20:31:41.118Z,7.70
2023-05-08T20:33:51.275Z,7.70
2023-05-08T20:35:59.688Z,7.60
2023-05-08T20:38:08.447Z,7.60
2023-05-08T20:40:17.483Z,7.60
2023-05-08T20:42:26.138Z,7.60
2023-05-08T20:44:34.798Z,7.60
2023-05-08T20:46:43.195Z,7.60
2023-05-08T20:48:52.936Z,7.50
2023-05-08T20:51:01.250Z,7.50
2023-05-08T20:53:09.680Z,7.40
2023-05-08T20:55:18.343Z,7.40
2023-05-08T20:57:27.129Z,7.40
2023-05-08T20:59:36.364Z,7.30
2023-05-08T21:01:45.024Z,7.30
2023-05-08T21:03:55.457Z,7.30
2023-05-08T21:06:04.544Z,7.30
2023-05-08T21:08:13.422Z,7.30
2023-05-08T21:10:21.716Z,7.20
2023-05-08T21:12:30.764Z,7.20
2023-05-08T21:14:39.472Z,7.20
2023-05-08T21:16:47.801Z,7.10
2023-05-08T21:18:58.668Z,7.10
2023-05-08T21:21:15.964Z,7.00
2023-05-08T21:23:24.595Z,7.00
2023-05-08T21:25:33.493Z,6.90
2023-05-08T21:27:42.466Z,6.90
2023-05-08T21:29:50.750Z,6.90
2023-05-08T21:31:59.113Z,6.90
2023-05-08T21:34:09.272Z,6.90
2023-05-08T21:36:17.986Z,6.90
2023-05-08T21:38:26.258Z,6.90
2023-05-08T21:40:35.495Z,6.80
2023-05-08T21:42:44.624Z,6.80
2023-05-08T21:44:56.032Z,6.80
2023-05-08T21:47:04.717Z,6.70
2023-05-08T21:49:15.302Z,6.70
2023-05-08T21:51:23.653Z,6.60
2023-05-08T21:53:32.236Z,6.60
2023-05-08T21:55:41.243Z,6.60
2023-05-08T21:57:50.061Z,6.50
2023-05-08T21:59:59.013Z,6.50
2023-05-08T22:02:07.450Z,6.40
2023-05-08T22:04:17.809Z,6.40
2023-05-08T22:06:26.890Z,6.50
2023-05-08T22:08:35.495Z,6.40
2023-05-08T22:10:44.567Z,6.40
2023-05-08T22:12:53.138Z,6.40
2023-05-08T22:15:01.536Z,6.50
2023-05-08T22:17:09.956Z,6.30
2023-05-08T22:19:20.211Z,6.30
2023-05-08T22:21:30.220Z,6.30
2023-05-08T22:23:38.590Z,6.30
2023-05-08T22:25:47.078Z,6.30
2023-05-08T22:27:55.796Z,6.20
2023-05-08T22:30:04.412Z,6.10
2023-05-08T22:32:13.903Z,6.10
2023-05-08T22:34:23.759Z,6.00
2023-05-08T22:36:32.771Z,6.00
2023-05-08T22:38:41.726Z,6.00
2023-05-08T22:40:50.479Z,5.90
2023-05-08T22:43:00.256Z,5.90
2023-05-08T22:45:10.390Z,5.90
2023-05-08T22:47:19.311Z,5.90
2023-05-08T22:49:30.307Z,5.80
2023-05-08T22:51:39.101Z,5.80
2023-05-08T22:53:49.120Z,5.80
2023-05-08T22:55:57.418Z,5.80
2023-05-08T22:58:06.276Z,5.70
2023-05-08T23:00:16.340Z,5.70
2023-05-08T23:02:24.848Z,5.70
2023-05-08T23:04:36.241Z,5.70
2023-05-08T23:06:45.145Z,5.70
2023-05-08T23:08:53.813Z,5.70
2023-05-08T23:11:02.163Z,5.60
2023-05-08T23:13:10.705Z,5.50
2023-05-08T23:15:21.388Z,5.50
2023-05-08T23:17:30.119Z,5.50
2023-05-08T23:19:40.181Z,5.50
2023-05-08T23:21:48.925Z,5.50
2023-05-08T23:23:57.804Z,5.50
2023-05-08T23:26:06.451Z,5.50
2023-05-08T23:28:14.856Z,5.50
2023-05-08T23:30:23.396Z,5.40
2023-05-08T23:32:31.834Z,5.40
2023-05-08T23:34:43.153Z,5.40
2023-05-08T23:36:51.893Z,5.30
2023-05-08T23:39:00.501Z,5.20
2023-05-08T23:41:09.417Z,5.30
2023-05-08T23:43:18.304Z,5.20
2023-05-08T23:45:26.616Z,5.20
2023-05-08T23:47:35.205Z,5.30
2023-05-08T23:49:45.536Z,5.30
2023-05-08T23:51:54.478Z,5.40
2023-05-08T23:54:03.484Z,5.40
2023-05-08T23:56:11.851Z,5.40
2023-05-08T23:58:20.497Z,5.30
